Inicio METAR Ruta Wind Satelite

Informe Meteorológico

Fecha: 2024/06/18 20:03:20 Local
2024.06.19 01:03 UTC


Operación:VFR
SKIB 190000Z 34004KT 9999 SCT030 BKN100 25/19 Q1015 =

SKIB 182300Z VRB02KT 9999 SCT030 BKN100 26/19 Q1014
SKIB 182200Z 09007KT 9999 SCT030 BKN100 28/19 Q1013
SKIB 182100Z 17005KT 9999 SCT030 BKN100 29/19 Q1013
SKIB 182000Z 27004KT 9999 SCT030 BKN100 30/19 Q1013
SKIB 181900Z 10006KT 9999 SCT030 BKN100 29/19 Q1015